createdAt,value
2022-11-22T00:00:40.413Z,4.07
2022-11-22T00:03:08.552Z,10.63
2022-11-22T00:05:36.155Z,1.80
2022-11-22T00:08:04.494Z,18.55
2022-11-22T00:10:31.941Z,1.17
2022-11-22T00:12:59.832Z,5.82
2022-11-22T00:15:27.188Z,4.43
2022-11-22T00:17:54.421Z,11.27
2022-11-22T00:20:21.755Z,13.00
2022-11-22T00:22:49.113Z,3.15
2022-11-22T00:25:16.492Z,7.30
2022-11-22T00:27:44.556Z,8.63
2022-11-22T00:30:12.076Z,16.23
2022-11-22T00:32:39.353Z,7.18
2022-11-22T00:35:07.151Z,8.55
2022-11-22T00:37:34.517Z,2.70
2022-11-22T00:40:02.512Z,15.07
2022-11-22T00:42:29.842Z,10.98
2022-11-22T00:44:57.288Z,8.18
2022-11-22T00:47:24.643Z,4.43
2022-11-22T00:49:51.926Z,5.90
2022-11-22T00:52:19.107Z,8.30
2022-11-22T00:54:51.583Z,3.75
2022-11-22T00:57:22.011Z,8.07
2022-11-22T00:59:49.389Z,7.30
2022-11-22T01:02:16.650Z,1.23
2022-11-22T01:04:44.008Z,3.97
2022-11-22T01:07:11.653Z,9.85
2022-11-22T01:09:39.002Z,7.78
2022-11-22T01:12:06.496Z,2.45
2022-11-22T01:14:34.109Z,6.15
2022-11-22T01:17:01.371Z,18.33
2022-11-22T01:19:28.830Z,5.10
2022-11-22T01:21:56.223Z,4.28
2022-11-22T01:24:23.676Z,10.32
2022-11-22T01:26:51.028Z,7.55
2022-11-22T01:29:18.404Z,5.50
2022-11-22T01:31:45.633Z,4.18
2022-11-22T01:34:13.220Z,1.30
2022-11-22T01:36:40.542Z,6.57
2022-11-22T01:39:07.766Z,5.63
2022-11-22T01:41:35.272Z,14.40
2022-11-22T01:44:41.385Z,7.18
2022-11-22T01:47:17.613Z,0.98
2022-11-22T01:49:47.139Z,8.53
2022-11-22T01:52:18.280Z,2.15
2022-11-22T01:54:50.553Z,3.90
2022-11-22T01:57:23.971Z,2.47
2022-11-22T01:59:59.320Z,4.38
2022-11-22T02:02:27.264Z,5.80
2022-11-22T02:04:57.399Z,1.58
2022-11-22T02:07:29.599Z,11.38
2022-11-22T02:09:57.618Z,12.40
2022-11-22T02:12:28.623Z,11.30
2022-11-22T02:14:56.796Z,4.63
2022-11-22T02:17:26.739Z,3.03
2022-11-22T02:19:54.888Z,5.95
2022-11-22T02:22:49.703Z,12.57
2022-11-22T02:25:19.631Z,8.30
2022-11-22T02:27:47.347Z,2.47
2022-11-22T02:30:14.925Z,3.63
2022-11-22T02:32:42.148Z,9.15
2022-11-22T02:35:19.918Z,8.07
2022-11-22T02:37:51.436Z,2.72
2022-11-22T02:40:20.076Z,3.42
2022-11-22T02:43:05.010Z,2.75
2022-11-22T02:45:32.280Z,4.55
2022-11-22T02:48:11.438Z,3.05
2022-11-22T02:50:38.697Z,2.10
2022-11-22T02:53:06.845Z,12.23
2022-11-22T02:55:34.176Z,4.18
2022-11-22T02:58:01.731Z,7.47
2022-11-22T03:00:28.953Z,3.78
2022-11-22T03:02:56.163Z,9.90
2022-11-22T03:05:23.427Z,8.65
2022-11-22T03:07:51.270Z,5.88
2022-11-22T03:10:18.709Z,5.55
2022-11-22T03:12:45.920Z,6.07
2022-11-22T03:15:13.187Z,2.58
2022-11-22T03:17:40.428Z,13.20
2022-11-22T03:20:08.481Z,8.88
2022-11-22T03:22:35.772Z,5.88
2022-11-22T03:25:03.154Z,13.25
2022-11-22T03:27:30.410Z,8.02
2022-11-22T03:29:57.634Z,6.32
2022-11-22T03:32:24.838Z,7.20
2022-11-22T03:34:52.037Z,7.43
2022-11-22T03:37:19.313Z,7.72
2022-11-22T03:39:46.541Z,0.88
2022-11-22T03:42:18.302Z,3.78
2022-11-22T03:44:48.516Z,1.38
2022-11-22T03:47:15.772Z,13.25
2022-11-22T03:49:43.238Z,7.13
2022-11-22T03:52:11.226Z,8.77
2022-11-22T03:54:38.541Z,13.95
2022-11-22T03:57:05.812Z,11.23
2022-11-22T03:59:33.316Z,12.80
2022-11-22T04:02:00.707Z,6.15
2022-11-22T04:04:27.931Z,7.57
2022-11-22T04:06:55.158Z,9.57
2022-11-22T04:09:22.504Z,4.03
2022-11-22T04:11:49.756Z,9.25
2022-11-22T04:14:35.602Z,8.75
2022-11-22T04:17:02.857Z,12.40
2022-11-22T04:19:30.472Z,9.40
2022-11-22T04:21:57.856Z,9.93
2022-11-22T04:24:43.744Z,8.38
2022-11-22T04:27:10.942Z,3.33
2022-11-22T04:29:38.154Z,5.88
2022-11-22T04:32:24.480Z,6.00
2022-11-22T04:34:51.633Z,6.55
2022-11-22T04:37:18.843Z,15.90
2022-11-22T04:39:46.098Z,6.75
2022-11-22T04:42:31.853Z,2.30
2022-11-22T04:44:59.089Z,4.78
2022-11-22T04:47:48.956Z,6.88
2022-11-22T04:50:36.099Z,6.88
2022-11-22T04:53:03.509Z,6.97
2022-11-22T04:55:30.913Z,8.73
2022-11-22T04:58:00.213Z,3.78
2022-11-22T05:00:31.404Z,12.00
2022-11-22T05:02:59.141Z,10.23
2022-11-22T05:05:27.339Z,5.53
2022-11-22T05:07:54.809Z,4.68
2022-11-22T05:10:26.563Z,7.80
2022-11-22T05:12:55.802Z,12.25
2022-11-22T05:15:23.090Z,10.45
2022-11-22T05:17:50.328Z,15.52
2022-11-22T05:20:17.631Z,12.35
2022-11-22T05:23:03.283Z,13.60
2022-11-22T05:25:30.601Z,10.63
2022-11-22T05:27:57.812Z,11.73
2022-11-22T05:30:25.076Z,10.73
2022-11-22T05:32:52.279Z,7.68
2022-11-22T05:35:19.573Z,5.78
2022-11-22T05:37:46.822Z,6.00
2022-11-22T05:40:14.198Z,6.13
2022-11-22T05:42:41.416Z,9.13
2022-11-22T05:45:09.153Z,7.60
2022-11-22T05:47:36.767Z,6.65
2022-11-22T05:50:04.477Z,3.10
2022-11-22T05:52:32.041Z,10.02
2022-11-22T05:54:59.275Z,6.55
2022-11-22T05:57:26.653Z,5.20
2022-11-22T05:59:54.410Z,4.00
2022-11-22T06:02:21.761Z,2.15
2022-11-22T06:04:49.168Z,4.07
2022-11-22T06:07:16.474Z,2.75
2022-11-22T06:09:43.801Z,4.70
2022-11-22T06:12:10.998Z,8.38
2022-11-22T06:14:42.954Z,5.35
2022-11-22T06:17:10.881Z,2.75
2022-11-22T06:19:38.181Z,0.88
2022-11-22T06:22:06.155Z,1.48
2022-11-22T06:24:33.437Z,9.73
2022-11-22T06:27:00.715Z,4.38
2022-11-22T06:29:29.250Z,11.65
2022-11-22T06:32:01.995Z,3.65
2022-11-22T06:34:30.701Z,3.78
2022-11-22T06:36:57.913Z,3.72
2022-11-22T06:39:25.115Z,8.45
2022-11-22T06:41:52.335Z,11.25
2022-11-22T06:44:19.549Z,6.13
2022-11-22T06:46:46.767Z,8.38
2022-11-22T06:49:14.926Z,2.20
2022-11-22T06:51:42.148Z,13.45
2022-11-22T06:54:12.363Z,13.77
2022-11-22T06:56:41.119Z,2.22
2022-11-22T06:59:09.173Z,9.50
2022-11-22T07:01:37.682Z,6.18
2022-11-22T07:04:05.801Z,8.85
2022-11-22T07:06:35.615Z,9.35
2022-11-22T07:09:06.100Z,9.93
2022-11-22T07:11:34.661Z,3.10
2022-11-22T07:14:07.587Z,9.40
2022-11-22T07:16:36.276Z,3.47
2022-11-22T07:19:04.237Z,4.32
2022-11-22T07:21:32.406Z,5.47
2022-11-22T07:23:59.733Z,7.53
2022-11-22T07:26:28.598Z,5.55
2022-11-22T07:28:56.510Z,11.60
2022-11-22T07:31:23.834Z,6.78
2022-11-22T07:33:51.131Z,6.15
2022-11-22T07:36:20.664Z,12.05
2022-11-22T07:38:48.934Z,3.45
2022-11-22T07:41:17.524Z,3.50
2022-11-22T07:43:46.076Z,12.30
2022-11-22T07:46:24.745Z,14.10
2022-11-22T07:48:52.069Z,13.93
2022-11-22T07:51:19.533Z,4.65
2022-11-22T07:53:46.884Z,2.78
2022-11-22T07:56:14.553Z,5.32
2022-11-22T07:58:41.986Z,2.55
2022-11-22T08:01:14.809Z,8.05
2022-11-22T08:03:42.361Z,7.32
2022-11-22T08:06:11.313Z,8.63
2022-11-22T08:08:39.041Z,9.85
2022-11-22T08:11:07.162Z,15.27
2022-11-22T08:13:35.131Z,3.90
2022-11-22T08:16:08.253Z,8.05
2022-11-22T08:18:36.713Z,15.45
2022-11-22T08:21:12.044Z,4.72
2022-11-22T08:23:40.500Z,3.53
2022-11-22T08:26:09.851Z,2.88
2022-11-22T08:28:37.276Z,2.03
2022-11-22T08:31:08.573Z,6.45
2022-11-22T08:33:36.596Z,5.65
2022-11-22T08:36:04.838Z,5.28
2022-11-22T08:38:32.304Z,4.32
2022-11-22T08:40:59.594Z,3.38
2022-11-22T08:43:26.999Z,11.60
2022-11-22T08:45:57.136Z,4.43
2022-11-22T08:48:26.256Z,4.13
2022-11-22T08:50:55.424Z,6.10
2022-11-22T08:53:23.219Z,1.75
2022-11-22T08:55:50.638Z,3.65
2022-11-22T08:58:18.523Z,7.28
2022-11-22T09:00:46.208Z,5.80
2022-11-22T09:03:13.581Z,6.28
2022-11-22T09:08:31.259Z,9.93
2022-11-22T09:11:07.861Z,5.80
2022-11-22T09:13:35.481Z,8.27
2022-11-22T09:16:11.272Z,10.15
2022-11-22T09:18:39.391Z,7.20
2022-11-22T09:21:15.682Z,2.38
2022-11-22T09:23:44.784Z,5.47
2022-11-22T09:26:17.458Z,9.65
2022-11-22T09:28:46.647Z,3.03
2022-11-22T09:31:17.397Z,8.50
2022-11-22T09:33:45.326Z,8.40
2022-11-22T09:36:18.189Z,8.55
2022-11-22T09:38:46.086Z,4.78
2022-11-22T09:41:33.551Z,9.88
2022-11-22T09:44:16.088Z,6.65
2022-11-22T09:46:52.781Z,4.35
2022-11-22T09:49:35.038Z,5.68
2022-11-22T09:52:19.877Z,6.45
2022-11-22T09:54:57.818Z,5.38
2022-11-22T09:57:31.671Z,4.85
2022-11-22T10:00:08.163Z,5.18
2022-11-22T10:02:59.925Z,10.52
2022-11-22T10:05:38.746Z,6.27
2022-11-22T10:08:32.070Z,2.83
2022-11-22T10:11:01.439Z,2.03
2022-11-22T10:13:43.359Z,2.80
2022-11-22T10:16:25.200Z,4.40
2022-11-22T10:19:13.377Z,3.67
2022-11-22T10:21:42.266Z,6.30
2022-11-22T10:24:16.403Z,11.90
2022-11-22T10:26:44.581Z,4.90
2022-11-22T10:29:27.035Z,8.10
2022-11-22T10:32:17.200Z,8.98
2022-11-22T10:35:18.299Z,8.05
2022-11-22T10:38:29.275Z,8.10
2022-11-22T10:41:17.004Z,4.50
2022-11-22T10:46:46.070Z,6.38
2022-11-22T10:49:31.482Z,9.55
2022-11-22T10:52:21.962Z,12.18
2022-11-22T10:55:33.645Z,7.80
2022-11-22T10:58:25.398Z,3.10
2022-11-22T11:01:09.158Z,4.90
2022-11-22T11:03:41.326Z,7.30
2022-11-22T11:06:26.752Z,5.85
2022-11-22T11:10:08.933Z,8.02
2022-11-22T11:11:56.496Z,9.13
2022-11-22T11:14:30.927Z,7.53
2022-11-22T11:16:59.398Z,6.55
2022-11-22T11:19:30.603Z,8.00
2022-11-22T11:22:07.052Z,6.60
2022-11-22T11:24:38.815Z,12.65
2022-11-22T11:27:07.416Z,8.95
2022-11-22T11:29:45.168Z,9.07
2022-11-22T11:32:17.061Z,6.57
2022-11-22T11:34:58.060Z,4.55
2022-11-22T11:37:37.070Z,8.75
2022-11-22T11:40:06.687Z,5.45
2022-11-22T11:42:35.427Z,8.75
2022-11-22T11:45:27.867Z,5.20
2022-11-22T11:47:55.414Z,12.77
2022-11-22T11:50:27.931Z,11.63
2022-11-22T11:53:02.639Z,19.60
2022-11-22T11:55:35.846Z,8.05
2022-11-22T11:58:16.175Z,12.73
2022-11-22T12:00:45.602Z,12.02
2022-11-22T12:03:16.413Z,11.30
2022-11-22T12:05:43.773Z,9.70
2022-11-22T12:08:31.289Z,9.85
2022-11-22T12:11:18.202Z,7.00
2022-11-22T12:14:18.973Z,11.97
2022-11-22T12:16:43.962Z,9.75
2022-11-22T12:19:29.891Z,9.07
2022-11-22T12:22:09.297Z,12.43
2022-11-22T12:27:46.729Z,5.50
2022-11-22T12:30:14.772Z,10.93
2022-11-22T12:32:48.397Z,10.32
2022-11-22T12:35:21.076Z,5.22
2022-11-22T12:37:56.867Z,8.27
2022-11-22T12:40:52.434Z,5.50
2022-11-22T12:43:30.575Z,10.30
2022-11-22T12:46:18.117Z,9.93
2022-11-22T12:48:22.507Z,10.65
2022-11-22T12:49:00.474Z,4.63
2022-11-22T12:51:52.454Z,16.05
2022-11-22T12:54:41.997Z,6.85
2022-11-22T12:57:55.475Z,9.82
2022-11-22T13:00:25.049Z,7.65
2022-11-22T13:03:16.344Z,8.05
2022-11-22T13:05:53.976Z,8.95
2022-11-22T13:08:36.368Z,7.95
2022-11-22T13:11:14.472Z,8.80
2022-11-22T13:13:51.808Z,3.20
2022-11-22T13:18:52.209Z,6.78
2022-11-22T13:21:40.628Z,10.05
2022-11-22T13:24:19.947Z,7.13
2022-11-22T13:27:17.949Z,11.23
2022-11-22T13:29:46.167Z,11.27
2022-11-22T13:32:13.343Z,13.25
2022-11-22T13:34:43.128Z,6.82
2022-11-22T13:37:17.465Z,11.02
2022-11-22T13:39:49.496Z,11.20
2022-11-22T13:42:27.999Z,5.82
2022-11-22T13:44:55.172Z,18.75
2022-11-22T13:47:37.236Z,13.38
2022-11-22T13:50:36.316Z,9.52
2022-11-22T13:53:37.829Z,9.70
2022-11-22T13:56:16.991Z,9.48
2022-11-22T13:58:54.725Z,6.93
2022-11-22T14:01:51.824Z,9.95
2022-11-22T14:04:26.679Z,7.35
2022-11-22T14:07:07.607Z,7.13
2022-11-22T14:09:45.469Z,5.50
2022-11-22T14:12:18.533Z,8.82
2022-11-22T14:15:14.599Z,7.15
2022-11-22T14:18:02.709Z,8.02
2022-11-22T14:21:03.825Z,8.85
2022-11-22T14:24:24.147Z,8.68
2022-11-22T14:27:01.841Z,3.38
2022-11-22T14:29:54.040Z,7.07
2022-11-22T14:32:26.449Z,7.15
2022-11-22T14:35:06.083Z,6.50
2022-11-22T14:37:42.593Z,3.13
2022-11-22T14:40:14.114Z,9.50
2022-11-22T14:42:47.079Z,17.20
2022-11-22T14:45:53.712Z,6.57
2022-11-22T14:48:28.845Z,11.77
2022-11-22T14:51:09.153Z,5.88
2022-11-22T14:53:53.241Z,3.83
2022-11-22T14:56:25.808Z,6.40
2022-11-22T14:58:57.835Z,8.77
2022-11-22T15:01:36.930Z,6.78
2022-11-22T15:09:12.134Z,7.05
2022-11-22T15:09:21.189Z,11.93
2022-11-22T15:10:39.003Z,6.85
2022-11-22T15:13:34.276Z,10.02
2022-11-22T15:59:37.810Z,6.00
2022-11-22T16:02:16.023Z,8.57
2022-11-22T16:06:09.193Z,7.80
2022-11-22T16:07:46.686Z,18.23
2022-11-22T16:10:23.283Z,11.32
2022-11-22T16:12:52.205Z,7.75
2022-11-22T16:15:36.374Z,10.02
2022-11-22T16:18:15.751Z,7.25
2022-11-22T16:20:59.205Z,13.25
2022-11-22T16:23:31.784Z,14.07
2022-11-22T16:26:13.692Z,11.43
2022-11-22T16:28:41.132Z,16.63
2022-11-22T16:31:23.448Z,9.25
2022-11-22T16:33:52.037Z,17.33
2022-11-22T16:36:20.995Z,27.70
2022-11-22T16:38:48.401Z,54.08
2022-11-22T16:41:24.359Z,24.73
2022-11-22T16:44:00.533Z,22.60
2022-11-22T16:46:28.084Z,41.22
2022-11-22T16:48:56.255Z,47.05
2022-11-22T16:51:28.383Z,49.92
2022-11-22T16:54:00.529Z,25.70
2022-11-22T16:56:29.948Z,30.95
2022-11-22T16:58:58.327Z,46.97
2022-11-22T17:01:30.927Z,21.25
2022-11-22T17:04:00.156Z,16.02
2022-11-22T17:06:29.207Z,21.10
2022-11-22T17:08:58.849Z,27.60
2022-11-22T17:11:29.338Z,21.10
2022-11-22T17:13:57.516Z,11.60
2022-11-22T17:16:24.825Z,25.75
2022-11-22T17:18:53.283Z,19.45
2022-11-22T17:21:37.436Z,26.50
2022-11-22T17:24:13.140Z,24.55
2022-11-22T17:26:40.396Z,18.55
2022-11-22T17:29:11.166Z,20.27
2022-11-22T17:31:48.709Z,22.27
2022-11-22T17:34:16.209Z,28.25
2022-11-22T17:36:43.446Z,29.45
2022-11-22T17:39:13.046Z,25.20
2022-11-22T17:41:41.265Z,21.02
2022-11-22T17:44:14.261Z,17.45
2022-11-22T17:46:41.573Z,30.23
2022-11-22T17:49:14.132Z,16.92
2022-11-22T17:51:42.942Z,18.73
2022-11-22T17:54:10.503Z,13.55
2022-11-22T17:56:38.093Z,25.33
2022-11-22T17:59:05.771Z,17.58
2022-11-22T18:01:33.230Z,13.05
2022-11-22T18:04:00.548Z,14.35
2022-11-22T18:06:29.127Z,13.23
2022-11-22T18:08:56.493Z,20.35
2022-11-22T18:11:23.828Z,18.50
2022-11-22T18:13:51.066Z,23.27
2022-11-22T18:16:18.714Z,36.15
2022-11-22T18:18:56.775Z,17.33
2022-11-22T18:21:30.211Z,24.52
2022-11-22T18:24:01.489Z,20.98
2022-11-22T18:26:44.400Z,16.48
2022-11-22T18:32:01.780Z,24.88
2022-11-22T18:34:30.110Z,16.25
2022-11-22T18:39:44.747Z,19.40
2022-11-22T18:42:15.003Z,30.05
2022-11-22T18:44:42.470Z,22.50
2022-11-22T18:47:09.896Z,18.25
2022-11-22T18:49:37.536Z,24.77
2022-11-22T18:52:05.182Z,20.55
2022-11-22T18:54:32.655Z,18.02
2022-11-22T18:57:00.135Z,17.40
2022-11-22T18:59:27.457Z,20.05
2022-11-22T19:01:55.433Z,15.55
2022-11-22T19:04:22.745Z,17.67
2022-11-22T19:06:50.048Z,10.75
2022-11-22T19:09:17.598Z,17.77
2022-11-22T19:11:44.944Z,12.85
2022-11-22T19:14:12.300Z,26.50
2022-11-22T19:16:39.631Z,17.35
2022-11-22T19:19:08.378Z,13.60
2022-11-22T19:21:35.774Z,16.77
2022-11-22T19:24:03.151Z,16.02
2022-11-22T19:26:30.423Z,19.85
2022-11-22T19:29:00.224Z,14.43
2022-11-22T19:31:28.990Z,17.23
2022-11-22T19:34:00.113Z,15.90
2022-11-22T19:36:33.149Z,23.42
2022-11-22T19:39:03.611Z,23.27
2022-11-22T19:41:31.338Z,20.55
2022-11-22T19:43:59.091Z,25.88
2022-11-22T19:46:26.619Z,24.33
2022-11-22T19:48:55.758Z,24.05
2022-11-22T19:51:24.181Z,30.63
2022-11-22T19:53:59.478Z,30.63
2022-11-22T19:56:30.440Z,30.23
2022-11-22T19:58:59.606Z,23.95
2022-11-22T20:01:28.908Z,28.40
2022-11-22T20:03:58.637Z,29.90
2022-11-22T20:06:28.277Z,35.20
2022-11-22T20:09:23.228Z,31.02
2022-11-22T20:11:51.175Z,30.63
2022-11-22T20:14:18.708Z,22.83
2022-11-22T20:16:46.028Z,27.52
2022-11-22T20:19:16.522Z,28.10
2022-11-22T20:21:45.152Z,29.17
2022-11-22T20:24:13.421Z,27.15
2022-11-22T20:26:40.721Z,25.85
2022-11-22T20:29:11.334Z,26.27
2022-11-22T20:31:38.835Z,31.15
2022-11-22T20:34:07.190Z,25.52
2022-11-22T20:36:35.249Z,22.75
2022-11-22T20:39:09.559Z,31.98
2022-11-22T20:41:37.951Z,29.85
2022-11-22T20:44:05.441Z,26.55
2022-11-22T20:46:36.861Z,34.50
2022-11-22T20:49:04.190Z,25.33
2022-11-22T20:51:31.528Z,24.90
2022-11-22T20:53:58.899Z,31.95
2022-11-22T20:56:26.175Z,24.25
2022-11-22T20:58:53.906Z,24.60
2022-11-22T21:01:24.167Z,25.48
2022-11-22T21:03:52.232Z,36.17
2022-11-22T21:06:20.879Z,20.17
2022-11-22T21:08:48.342Z,34.85
2022-11-22T21:11:21.419Z,22.77
2022-11-22T21:13:49.613Z,27.90
2022-11-22T21:16:24.273Z,23.13
2022-11-22T21:18:52.526Z,21.88
2022-11-22T21:21:23.017Z,28.48
2022-11-22T21:23:52.710Z,22.27
2022-11-22T21:26:20.891Z,29.00
2022-11-22T21:28:48.699Z,22.65
2022-11-22T21:31:16.328Z,29.45
2022-11-22T21:33:45.532Z,19.13
2022-11-22T21:36:13.613Z,20.38
2022-11-22T21:38:41.063Z,17.58
2022-11-22T21:41:43.590Z,18.98
2022-11-22T21:44:11.226Z,20.30
2022-11-22T21:46:38.935Z,13.05
2022-11-22T21:49:06.731Z,19.80
2022-11-22T21:51:34.141Z,23.75
2022-11-22T21:54:02.876Z,28.42
2022-11-22T21:56:30.921Z,18.35
2022-11-22T21:58:58.317Z,17.80
2022-11-22T22:01:26.261Z,17.42
2022-11-22T22:03:54.076Z,14.57
2022-11-22T22:06:21.555Z,18.85
2022-11-22T22:08:49.060Z,20.83
2022-11-22T22:11:16.505Z,20.02
2022-11-22T22:13:43.791Z,16.38
2022-11-22T22:16:18.357Z,14.85
2022-11-22T22:18:45.851Z,18.95
2022-11-22T22:21:14.167Z,21.60
2022-11-22T22:23:42.829Z,25.20
2022-11-22T22:26:15.768Z,19.40
2022-11-22T22:28:45.045Z,19.70
2022-11-22T22:31:17.254Z,24.88
2022-11-22T22:33:45.764Z,19.73
2022-11-22T22:36:13.726Z,20.63
2022-11-22T22:38:41.640Z,21.25
2022-11-22T22:41:11.518Z,23.27
2022-11-22T22:43:41.856Z,45.47
2022-11-22T22:46:21.365Z,25.30
2022-11-22T22:48:49.575Z,22.35
2022-11-22T22:51:31.927Z,24.35
2022-11-22T22:54:00.635Z,23.67
2022-11-22T22:56:29.837Z,17.40
2022-11-22T22:58:58.903Z,17.60
2022-11-22T23:01:28.789Z,15.02
2022-11-22T23:03:58.635Z,27.13
2022-11-22T23:06:28.030Z,11.70
2022-11-22T23:08:55.914Z,28.15
2022-11-22T23:11:46.023Z,14.75
2022-11-22T23:14:15.223Z,23.63
2022-11-22T23:16:42.877Z,18.55
2022-11-22T23:19:10.206Z,15.52
2022-11-22T23:21:37.624Z,31.92
2022-11-22T23:24:05.914Z,29.52
2022-11-22T23:26:33.550Z,14.43
2022-11-22T23:29:01.252Z,18.83
2022-11-22T23:31:28.585Z,21.38
2022-11-22T23:33:56.176Z,18.92
2022-11-22T23:36:23.643Z,22.85
2022-11-22T23:38:51.011Z,19.08
2022-11-22T23:41:20.737Z,27.23
2022-11-22T23:43:55.428Z,10.38
2022-11-22T23:46:25.958Z,21.85
2022-11-22T23:48:55.385Z,20.38
2022-11-22T23:51:23.389Z,14.02
2022-11-22T23:53:55.522Z,15.68
2022-11-22T23:56:23.288Z,10.45
2022-11-22T23:58:51.394Z,20.27
